Time;durP1;ratioP1;P1;durP2;ratioP2;P2;SDS_P1;SDS_P2;PMS_P1;PMS_P2;Temp;Humidity;BMP_temperature;BMP_pressure;BME280_temperature;BME280_humidity;BME280_pressure;Samples;Min_cycle;Max_cycle;Signal;HPM_P1;HPM_P2
2022/09/01 00:00:13;;;;;;;;;;;;;;;28.57;43.54;94335.91;4985663;28;7005;-60
2022/09/01 00:02:43;;;;;;;;;;;;;;;28.56;43.44;94339.91;4988934;28;8789;-60
2022/09/01 00:05:15;;;;;;;;;;;;;;;28.55;43.06;94335.66;4987154;28;7293;-60
2022/09/01 00:07:40;;;;;;;;;;;;;;;28.55;43.60;94338.41;5011672;28;6868;-60
2022/09/01 00:10:08;;;;;;;;;;;;;;;28.51;43.68;94326.94;5006172;28;8291;-60
2022/09/01 00:12:44;;;;;;;;;;;;;;;28.56;43.18;94330.88;4982657;28;9786;-60
2022/09/01 00:15:11;;;;;;;;;;;;;;;28.54;43.66;94323.09;4978602;28;7428;-60
2022/09/01 00:17:46;;;;;;;;;;;;;;;28.54;43.73;94323.09;4990445;28;8941;-60
2022/09/01 00:20:45;;;;;;;;;;;;;;;28.56;43.21;94325.34;4986156;28;7499;-60
2022/09/01 00:23:21;;;;;;;;;;;;;;;28.55;43.50;94335.66;4958349;28;7225;-60
2022/09/01 00:26:04;;;;;;;;;;;;;;;28.55;43.39;94330.13;4958317;28;7230;-60
2022/09/01 00:28:34;;;;;;;;;;;;;;;28.54;43.31;94316.78;4960901;28;7188;-60
2022/09/01 00:31:30;;;;;;;;;;;;;;;28.57;43.59;94312.97;4957200;28;7092;-60
2022/09/01 00:34:08;;;;;;;;;;;;;;;28.55;43.35;94313.53;4892403;29;9415;-60
2022/09/01 00:36:50;;;;;;;;;;;;;;;28.54;43.24;94312.00;4876843;29;7265;-60
2022/09/01 00:40:01;;;;;;;;;;;;;;;28.53;43.46;94310.53;4899456;29;7355;-60
2022/09/01 00:42:43;;;;;;;;;;;;;;;28.53;43.07;94313.31;4850134;29;7263;-60
2022/09/01 00:45:20;;;;;;;;;;;;;;;28.52;43.39;94313.81;4852895;29;7434;-60
2022/09/01 00:47:48;;;;;;;;;;;;;;;28.51;42.96;94310.31;4867792;29;7065;-60
2022/09/01 00:50:17;;;;;;;;;;;;;;;28.52;43.04;94313.81;4866128;29;9252;-60
2022/09/01 00:52:51;;;;;;;;;;;;;;;28.53;43.04;94313.31;4847270;29;7435;-60
2022/09/01 00:55:25;;;;;;;;;;;;;;;28.51;43.49;94318.63;4850132;29;9523;-60
2022/09/01 00:57:54;;;;;;;;;;;;;;;28.51;42.81;94306.81;4855550;29;7481;-60
2022/09/01 01:00:28;;;;;;;;;;;;;;;28.47;43.38;94312.66;4886248;29;8375;-60
2022/09/01 01:02:55;;;;;;;;;;;;;;;28.51;43.22;94312.34;4883983;29;7297;-60
2022/09/01 01:05:31;;;;;;;;;;;;;;;28.51;43.19;94309.56;4890505;29;9216;-60
2022/09/01 01:08:00;;;;;;;;;;;;;;;28.50;43.46;94308.81;4898681;29;8595;-60
2022/09/01 01:10:36;;;;;;;;;;;;;;;28.51;43.55;94306.81;4912486;29;7528;-60
2022/09/01 01:13:11;;;;;;;;;;;;;;;28.50;43.55;94308.06;4948594;28;7240;-60
2022/09/01 01:15:50;;;;;;;;;;;;;;;28.50;43.03;94308.06;4948818;28;9349;-60
2022/09/01 01:18:18;;;;;;;;;;;;;;;28.49;43.55;94306.59;4941407;28;7070;-60
2022/09/01 01:24:27;;;;;;;;;;;;;;;28.50;43.21;94313.59;4991288;28;7044;-60
2022/09/01 01:26:58;;;;;;;;;;;;;;;28.50;43.46;94313.59;4987406;28;7291;-60
2022/09/01 01:29:40;;;;;;;;;;;;;;;28.49;42.92;94310.13;5006432;28;7083;-60
2022/09/01 01:32:11;;;;;;;;;;;;;;;28.46;42.85;94311.16;4991730;28;7082;-60
2022/09/01 01:34:45;;;;;;;;;;;;;;;28.49;43.38;94312.13;5004308;28;7842;-60
2022/09/01 01:37:27;;;;;;;;;;;;;;;28.49;42.95;94314.91;4991396;28;6985;-60
2022/09/01 01:40:21;;;;;;;;;;;;;;;28.44;43.42;94319.25;5010837;28;9550;-60
2022/09/01 01:42:53;;;;;;;;;;;;;;;28.44;43.38;94329.56;5010408;28;7188;-60
2022/09/01 01:45:38;;;;;;;;;;;;;;;28.43;43.65;94323.28;4983620;28;8967;-60
2022/09/01 01:48:24;;;;;;;;;;;;;;;28.45;43.17;94325.53;4987452;28;7533;-60
2022/09/01 01:50:59;;;;;;;;;;;;;;;28.44;43.30;94324.78;4989421;28;7334;-60
2022/09/01 01:53:26;;;;;;;;;;;;;;;28.44;43.27;94319.25;4995041;28;7115;-60
2022/09/01 01:55:59;;;;;;;;;;;;;;;28.43;43.13;94317.75;4984843;28;6958;-60
2022/09/01 01:58:27;;;;;;;;;;;;;;;28.44;43.34;94315.75;4989777;28;7049;-60
2022/09/01 02:00:55;;;;;;;;;;;;;;;28.44;43.02;94307.44;4983493;28;7585;-60
2022/09/01 02:03:35;;;;;;;;;;;;;;;28.41;43.45;94317.53;4987179;28;7289;-60
2022/09/01 02:06:06;;;;;;;;;;;;;;;28.41;43.07;94314.03;5000947;28;9459;-60
2022/09/01 02:08:34;;;;;;;;;;;;;;;28.42;43.70;94318.28;4993620;28;7246;-60
2022/09/01 02:11:04;;;;;;;;;;;;;;;28.42;43.75;94321.06;5004568;28;6887;-60
2022/09/01 02:13:37;;;;;;;;;;;;;;;28.41;43.04;94320.31;4987957;28;10045;-60
2022/09/01 02:16:15;;;;;;;;;;;;;;;28.41;43.19;94314.03;4993017;28;7096;-60
2022/09/01 02:19:06;;;;;;;;;;;;;;;28.41;43.11;94312.00;5005168;28;9322;-60
2022/09/01 02:21:47;;;;;;;;;;;;;;;28.41;43.35;94312.00;4988083;28;7302;-60
2022/09/01 02:24:20;;;;;;;;;;;;;;;28.41;43.59;94311.25;4978808;28;7178;-60
2022/09/01 02:26:59;;;;;;;;;;;;;;;28.39;43.46;94303.50;4986292;28;7620;-60
2022/09/01 02:29:31;;;;;;;;;;;;;;;28.40;42.92;94302.25;4989242;28;7005;-60
2022/09/01 02:32:34;;;;;;;;;;;;;;;28.40;43.00;94302.25;4999197;28;6851;-60
2022/09/01 02:35:33;;;;;;;;;;;;;;;28.41;43.12;94300.94;4952721;28;7145;-60
2022/09/01 02:38:03;;;;;;;;;;;;;;;28.41;43.42;94302.97;4941034;28;7263;-60
2022/09/01 02:40:44;;;;;;;;;;;;;;;28.39;43.52;94295.19;4933951;28;7313;-60
2022/09/01 02:43:42;;;;;;;;;;;;;;;28.40;43.31;94293.94;4953371;28;7258;-60
2022/09/01 02:46:22;;;;;;;;;;;;;;;28.38;43.06;94311.06;4932757;28;7238;-60
2022/09/01 02:48:50;;;;;;;;;;;;;;;28.38;43.58;94299.97;4955288;28;8911;-60
2022/09/01 02:51:26;;;;;;;;;;;;;;;28.38;43.32;94305.50;4944743;28;7270;-61
2022/09/01 02:54:03;;;;;;;;;;;;;;;28.38;43.00;94310.31;4936497;28;7178;-61
2022/09/01 02:56:29;;;;;;;;;;;;;;;28.38;42.83;94304.78;4950905;28;7306;-60
2022/09/01 02:59:04;;;;;;;;;;;;;;;28.38;43.16;94306.81;4935997;28;7311;-60
2022/09/01 03:01:34;;;;;;;;;;;;;;;28.38;43.24;94310.31;4950578;28;8554;-60
2022/09/01 03:04:12;;;;;;;;;;;;;;;28.34;43.27;94301.56;4928051;28;7348;-60
2022/09/01 03:06:41;;;;;;;;;;;;;;;28.35;43.23;94305.84;4946851;28;7472;-60
2022/09/01 03:09:12;;;;;;;;;;;;;;;28.33;43.12;94300.09;4958789;28;7534;-60
2022/09/01 03:11:40;;;;;;;;;;;;;;;28.31;43.07;94300.63;4987028;28;9442;-60
2022/09/01 03:14:08;;;;;;;;;;;;;;;28.32;42.72;94302.13;5009589;28;7263;-60
2022/09/01 03:16:53;;;;;;;;;;;;;;;28.34;43.19;94298.81;5008930;28;7236;-60
2022/09/01 03:19:35;;;;;;;;;;;;;;;28.33;43.30;94287.03;4990996;28;7215;-60
2022/09/01 03:22:04;;;;;;;;;;;;;;;28.34;43.25;94293.28;4989275;28;6974;-60
2022/09/01 03:24:37;;;;;;;;;;;;;;;28.35;42.77;94295.53;5008308;28;7305;-60
2022/09/01 03:27:11;;;;;;;;;;;;;;;28.35;43.04;94292.75;5006234;28;7242;-60
2022/09/01 03:29:37;;;;;;;;;;;;;;;28.33;42.97;94286.28;5002266;28;7617;-60
2022/09/01 03:32:04;;;;;;;;;;;;;;;28.33;43.41;94297.34;5003684;28;7229;-60
2022/09/01 03:34:42;;;;;;;;;;;;;;;28.32;43.18;94295.84;5002289;28;7298;-60
2022/09/01 03:37:12;;;;;;;;;;;;;;;28.31;43.10;94299.88;4990311;28;7302;-61
2022/09/01 03:39:45;;;;;;;;;;;;;;;28.31;43.08;94294.34;4981384;28;7279;-60
2022/09/01 03:42:11;;;;;;;;;;;;;;;28.32;43.18;94284.75;5005356;28;9297;-61
2022/09/01 03:44:43;;;;;;;;;;;;;;;28.33;42.97;94291.81;5005014;28;6921;-60
2022/09/01 03:47:26;;;;;;;;;;;;;;;28.33;43.06;94292.56;4988321;28;7006;-60
2022/09/01 03:49:58;;;;;;;;;;;;;;;28.33;42.89;94286.28;4992078;28;7301;-60
2022/09/01 03:52:26;;;;;;;;;;;;;;;28.34;42.76;94293.28;4977167;28;7252;-60
2022/09/01 03:54:52;;;;;;;;;;;;;;;28.34;42.91;94290.50;5008519;28;7127;-60
2022/09/01 03:57:33;;;;;;;;;;;;;;;28.32;42.95;94287.53;5008616;28;9476;-60
2022/09/01 04:00:06;;;;;;;;;;;;;;;28.31;42.74;94284.03;5003633;28;7124;-60
2022/09/01 04:02:32;;;;;;;;;;;;;;;28.33;43.13;94291.81;4989664;28;7076;-60
2022/09/01 04:05:00;;;;;;;;;;;;;;;28.32;42.84;94287.53;4983435;28;7571;-60
2022/09/01 04:07:26;;;;;;;;;;;;;;;28.30;42.60;94276.25;5005419;28;9756;-61
2022/09/01 04:09:54;;;;;;;;;;;;;;;28.31;43.22;94283.28;4988185;28;7244;-60
2022/09/01 04:12:21;;;;;;;;;;;;;;;28.30;42.89;94282.53;4995463;28;9663;-60
2022/09/01 04:15:04;;;;;;;;;;;;;;;28.31;43.23;94277.75;4989402;28;7312;-60
2022/09/01 04:20:25;;;;;;;;;;;;;;;28.28;43.23;94279.56;4989787;28;7195;-60
2022/09/01 04:22:54;;;;;;;;;;;;;;;28.25;43.13;94280.63;4990816;28;7444;-60
2022/09/01 04:25:24;;;;;;;;;;;;;;;28.25;43.25;94277.13;4989272;28;8277;-60
2022/09/01 04:27:55;;;;;;;;;;;;;;;28.28;43.25;94289.88;4974677;28;9496;-60
2022/09/01 04:30:30;;;;;;;;;;;;;;;28.25;43.27;94275.09;5002517;28;9797;-60
2022/09/01 04:32:58;;;;;;;;;;;;;;;28.24;42.81;94273.59;4990171;28;7179;-60
2022/09/01 04:35:31;;;;;;;;;;;;;;;28.23;43.08;94282.44;4983656;28;7259;-60
2022/09/01 04:37:58;;;;;;;;;;;;;;;28.24;43.33;94283.91;4984012;28;7185;-60
2022/09/01 04:40:37;;;;;;;;;;;;;;;28.25;42.98;94286.16;4988146;28;7432;-60
2022/09/01 04:43:05;;;;;;;;;;;;;;;28.25;43.14;94279.88;4988596;28;8464;-60
2022/09/01 04:45:33;;;;;;;;;;;;;;;28.25;43.24;94285.41;4974045;28;9489;-60
2022/09/01 04:47:59;;;;;;;;;;;;;;;28.24;42.86;94279.13;4986117;28;8388;-59
2022/09/01 04:50:29;;;;;;;;;;;;;;;28.24;43.34;94272.84;4981960;28;7652;-60
2022/09/01 04:53:06;;;;;;;;;;;;;;;28.25;42.89;94288.19;5003620;28;9380;-60
2022/09/01 04:55:42;;;;;;;;;;;;;;;28.23;43.63;94285.94;4990005;28;7252;-60
2022/09/01 04:58:19;;;;;;;;;;;;;;;28.22;43.18;94287.22;4976514;28;8916;-60
2022/09/01 05:01:15;;;;;;;;;;;;;;;28.22;43.11;94281.69;4985301;28;7161;-60
2022/09/01 05:03:41;;;;;;;;;;;;;;;28.22;42.81;94283.72;4938908;29;7279;-60
2022/09/01 05:06:13;;;;;;;;;;;;;;;28.22;43.00;94286.47;4950457;28;9642;-60
2022/09/01 05:08:51;;;;;;;;;;;;;;;28.23;42.97;94276.91;4935994;28;7353;-60
2022/09/01 05:11:27;;;;;;;;;;;;;;;28.23;42.59;94282.44;4951996;28;7264;-60
2022/09/01 05:14:04;;;;;;;;;;;;;;;28.23;43.36;94282.44;4954412;28;7645;-60
2022/09/01 05:16:43;;;;;;;;;;;;;;;28.21;43.24;94282.94;4952281;28;7207;-60
2022/09/01 05:19:19;;;;;;;;;;;;;;;28.21;42.66;94282.19;4950682;28;7209;-60
2022/09/01 05:21:49;;;;;;;;;;;;;;;28.20;43.22;94286.25;4951079;28;7289;-60
2022/09/01 05:24:18;;;;;;;;;;;;;;;28.19;43.11;94282.75;4952945;28;7238;-62
2022/09/01 05:26:46;;;;;;;;;;;;;;;28.19;43.36;94285.50;4949456;28;8739;-60
2022/09/01 05:29:16;;;;;;;;;;;;;;;28.17;43.61;94284.53;4951531;28;7024;-61
2022/09/01 05:31:46;;;;;;;;;;;;;;;28.15;43.76;94281.56;4953641;28;9498;-61
2022/09/01 05:34:31;;;;;;;;;;;;;;;28.14;43.25;94294.63;4944020;28;7246;-61
2022/09/01 05:37:01;;;;;;;;;;;;;;;28.13;43.21;94284.13;4951721;28;7368;-61
2022/09/01 05:39:27;;;;;;;;;;;;;;;28.13;42.98;94284.13;4960163;28;7136;-61
2022/09/01 05:41:53;;;;;;;;;;;;;;;28.13;42.91;94284.88;5005354;28;7297;-61
2022/09/01 05:44:42;;;;;;;;;;;;;;;28.16;42.74;94285.84;4993517;28;6993;-61
2022/09/01 05:47:15;;;;;;;;;;;;;;;28.15;42.90;94292.63;4991261;28;7395;-61
2022/09/01 05:50:07;;;;;;;;;;;;;;;28.14;42.78;94285.63;4994575;28;6986;-61
2022/09/01 05:52:46;;;;;;;;;;;;;;;28.16;42.67;94292.13;5006713;28;7380;-61
2022/09/01 05:55:18;;;;;;;;;;;;;;;28.15;42.56;94289.88;4984400;28;7270;-61
2022/09/01 05:57:46;;;;;;;;;;;;;;;28.13;42.46;94287.63;4993615;28;7242;-61
2022/09/01 06:00:33;;;;;;;;;;;;;;;28.13;42.53;94287.63;5011759;28;7463;-61
2022/09/01 06:03:13;;;;;;;;;;;;;;;28.15;42.87;94292.63;4995919;28;9383;-61
2022/09/01 06:05:39;;;;;;;;;;;;;;;28.14;42.75;94297.41;5010318;28;7263;-61
2022/09/01 06:08:09;;;;;;;;;;;;;;;28.13;42.64;94300.72;4994729;28;7312;-61
2022/09/01 06:10:38;;;;;;;;;;;;;;;28.14;42.54;94302.22;4997204;28;7005;-61
2022/09/01 06:13:41;;;;;;;;;;;;;;;28.13;42.75;94301.47;4979673;28;7317;-61
2022/09/01 06:16:18;;;;;;;;;;;;;;;28.14;42.45;94296.69;4962744;28;9122;-61
2022/09/01 06:18:56;;;;;;;;;;;;;;;28.14;42.29;94291.16;4969343;28;7275;-61
2022/09/01 06:21:23;;;;;;;;;;;;;;;28.15;42.47;94300.94;4964952;28;7180;-61
2022/09/01 06:24:10;;;;;;;;;;;;;;;28.15;42.64;94300.94;4961471;28;9257;-61
2022/09/01 06:26:45;;;;;;;;;;;;;;;28.15;42.37;94300.94;4954482;28;8517;-61
2022/09/01 06:29:20;;;;;;;;;;;;;;;28.14;42.76;94302.22;4937575;28;7258;-61
2022/09/01 06:31:50;;;;;;;;;;;;;;;28.12;42.77;94299.25;4951543;28;9290;-61
2022/09/01 06:34:41;;;;;;;;;;;;;;;28.12;42.53;94302.72;4946191;28;7650;-61
2022/09/01 06:37:10;;;;;;;;;;;;;;;28.09;42.97;94301.03;4945525;28;9329;-61
2022/09/01 06:39:47;;;;;;;;;;;;;;;28.11;42.67;94309.53;4962412;28;7198;-61
2022/09/01 06:42:49;;;;;;;;;;;;;;;28.11;42.77;94309.53;4929959;28;8471;-61
2022/09/01 06:45:41;;;;;;;;;;;;;;;28.12;42.69;94313.06;4886176;29;7287;-61
2022/09/01 06:48:23;;;;;;;;;;;;;;;28.10;42.86;94313.56;4885252;29;7327;-61
2022/09/01 06:50:50;;;;;;;;;;;;;;;28.12;42.72;94313.06;4875500;29;9348;-61
2022/09/01 06:53:25;;;;;;;;;;;;;;;28.09;43.10;94312.09;4933897;28;8756;-61
2022/09/01 06:56:01;;;;;;;;;;;;;;;28.10;42.85;94318.38;4945357;28;9334;-61
2022/09/01 06:58:46;;;;;;;;;;;;;;;28.11;42.87;94322.63;4931532;29;7218;-61
2022/09/01 07:01:15;;;;;;;;;;;;;;;28.10;43.04;94323.91;4949648;28;9442;-61
2022/09/01 07:04:20;;;;;;;;;;;;;;;28.10;42.72;94329.44;4943398;28;7771;-61
2022/09/01 07:06:51;;;;;;;;;;;;;;;28.10;42.88;94323.91;4942687;28;7242;-61
2022/09/01 07:09:17;;;;;;;;;;;;;;;28.10;42.95;94329.44;4931512;29;7104;-61
2022/09/01 07:11:46;;;;;;;;;;;;;;;28.08;42.73;94332.72;4941003;28;7271;-61
2022/09/01 07:14:21;;;;;;;;;;;;;;;28.09;42.73;94339.00;4933764;28;6982;-61
2022/09/01 07:16:50;;;;;;;;;;;;;;;28.09;42.90;94334.22;4948542;28;7017;-61
2022/09/01 07:19:17;;;;;;;;;;;;;;;28.10;42.67;94326.69;4932564;29;9088;-61
2022/09/01 07:21:45;;;;;;;;;;;;;;;28.10;42.36;94346.75;4983286;28;7437;-61
2022/09/01 07:24:19;;;;;;;;;;;;;;;28.08;42.73;94335.47;4989530;28;9422;-61
2022/09/01 07:26:50;;;;;;;;;;;;;;;28.10;42.80;94346.75;4999294;28;7458;-61
2022/09/01 07:29:21;;;;;;;;;;;;;;;28.10;43.03;94340.50;5000154;28;9370;-61
2022/09/01 07:31:49;;;;;;;;;;;;;;;28.09;42.80;94348.03;4996407;28;9432;-61
2022/09/01 07:34:15;;;;;;;;;;;;;;;28.10;42.50;94346.03;4991014;28;7236;-61
2022/09/01 07:36:43;;;;;;;;;;;;;;;28.09;42.88;94344.53;4984709;28;6965;-61
2022/09/01 07:39:13;;;;;;;;;;;;;;;28.10;42.97;94346.03;4987056;28;7222;-61
2022/09/01 07:41:45;;;;;;;;;;;;;;;28.10;43.05;94354.31;4980772;28;6993;-61
2022/09/01 07:44:30;;;;;;;;;;;;;;;28.10;42.71;94357.81;5011147;28;7374;-61
2022/09/01 07:46:57;;;;;;;;;;;;;;;28.10;42.67;94351.56;4990724;28;8370;-61
2022/09/01 07:50:01;;;;;;;;;;;;;;;28.10;42.74;94351.56;4986675;28;7318;-61
2022/09/01 07:52:42;;;;;;;;;;;;;;;28.09;42.85;94363.88;4985129;28;9563;-61
2022/09/01 07:55:18;;;;;;;;;;;;;;;28.08;42.63;94359.63;4984784;28;7167;-61
2022/09/01 07:57:54;;;;;;;;;;;;;;;28.08;42.75;94354.09;5007469;28;7330;-61
2022/09/01 08:00:33;;;;;;;;;;;;;;;28.08;42.73;94351.31;4984945;28;7333;-61
2022/09/01 08:03:08;;;;;;;;;;;;;;;28.07;42.92;94350.59;4992446;28;7297;-61
2022/09/01 08:05:34;;;;;;;;;;;;;;;28.08;42.86;94351.31;4987437;28;6980;-61
2022/09/01 08:08:07;;;;;;;;;;;;;;;28.07;43.23;94353.34;5006879;28;9658;-61
2022/09/01 08:10:39;;;;;;;;;;;;;;;28.07;43.01;94352.59;5008116;28;9347;-61
2022/09/01 08:13:05;;;;;;;;;;;;;;;28.06;42.81;94353.88;4994369;28;7239;-61
2022/09/01 08:15:38;;;;;;;;;;;;;;;28.05;42.88;94352.41;5004132;28;7475;-61
2022/09/01 08:18:14;;;;;;;;;;;;;;;28.06;43.43;94359.41;4991750;28;7220;-61
2022/09/01 08:20:47;;;;;;;;;;;;;;;28.06;42.81;94362.16;5009041;28;7173;-61
2022/09/01 08:23:30;;;;;;;;;;;;;;;28.05;43.20;94357.91;4988396;28;6993;-61
2022/09/01 08:26:04;;;;;;;;;;;;;;;28.05;42.96;94360.69;5000008;28;9866;-61
2022/09/01 08:28:30;;;;;;;;;;;;;;;28.05;43.02;94366.22;4985352;28;8590;-61
2022/09/01 08:31:11;;;;;;;;;;;;;;;28.07;42.59;94366.44;4976193;28;7478;-61
2022/09/01 08:33:39;;;;;;;;;;;;;;;28.06;42.77;94364.94;4984335;28;7022;-61
2022/09/01 08:36:14;;;;;;;;;;;;;;;28.06;43.28;94364.94;4991573;28;7271;-61
2022/09/01 08:38:45;;;;;;;;;;;;;;;28.05;42.96;94357.91;4987829;28;9049;-61
2022/09/01 08:41:54;;;;;;;;;;;;;;;28.05;42.91;94366.97;4988013;28;7829;-61
2022/09/01 08:44:50;;;;;;;;;;;;;;;28.05;42.67;94366.22;4984440;28;7230;-61
2022/09/01 08:47:32;;;;;;;;;;;;;;;28.04;43.02;94357.16;4985911;28;7156;-61
2022/09/01 08:50:16;;;;;;;;;;;;;;;28.01;42.64;94358.25;4987585;28;7775;-61
2022/09/01 08:53:06;;;;;;;;;;;;;;;28.03;43.07;94361.22;5005082;28;7005;-61
2022/09/01 08:55:55;;;;;;;;;;;;;;;28.05;43.00;94361.44;4979445;28;7311;-61
2022/09/01 08:58:29;;;;;;;;;;;;;;;28.03;42.92;94366.00;4973499;28;7212;-61
2022/09/01 09:01:00;;;;;;;;;;;;;;;28.02;43.03;94367.25;4987931;28;8832;-61
2022/09/01 09:03:48;;;;;;;;;;;;;;;28.03;42.97;94374.28;4988630;28;9505;-61
2022/09/01 09:06:14;;;;;;;;;;;;;;;28.03;43.08;94369.53;5010712;28;7216;-61
2022/09/01 09:09:00;;;;;;;;;;;;;;;28.03;43.24;94366.00;4996635;28;7436;-61
2022/09/01 09:11:38;;;;;;;;;;;;;;;28.02;43.34;94372.78;5014225;28;7412;-61
2022/09/01 09:14:54;;;;;;;;;;;;;;;28.04;43.06;94375.78;5012095;28;7182;-61
2022/09/01 09:17:30;;;;;;;;;;;;;;;28.05;43.59;94380.03;5012346;28;7246;-61
2022/09/01 09:20:17;;;;;;;;;;;;;;;28.03;43.30;94380.56;4990769;28;7105;-61
2022/09/01 09:22:53;;;;;;;;;;;;;;;28.02;43.33;94375.56;4996757;28;6996;-61
2022/09/01 09:25:53;;;;;;;;;;;;;;;28.02;43.27;94378.31;4998823;28;7288;-60
2022/09/01 09:28:20;;;;;;;;;;;;;;;28.01;43.27;94377.59;4993193;28;9293;-61
2022/09/01 09:30:47;;;;;;;;;;;;;;;28.01;42.94;94377.59;4990195;28;7016;-61
2022/09/01 09:33:38;;;;;;;;;;;;;;;28.01;43.30;94374.06;5003490;28;7402;-61
2022/09/01 09:36:28;;;;;;;;;;;;;;;28.00;43.02;94369.81;4988643;28;7147;-61
2022/09/01 09:39:23;;;;;;;;;;;;;;;28.01;43.48;94374.06;4996069;28;7812;-60
2022/09/01 09:42:12;;;;;;;;;;;;;;;28.01;43.32;94372.06;4944084;28;8596;-61
2022/09/01 09:44:49;;;;;;;;;;;;;;;28.00;42.95;94364.28;4950901;28;7816;-61
2022/09/01 09:47:53;;;;;;;;;;;;;;;28.01;43.04;94371.31;4950872;28;7363;-61
2022/09/01 09:50:44;;;;;;;;;;;;;;;28.00;43.04;94370.56;4941897;28;7658;-61
2022/09/01 09:53:31;;;;;;;;;;;;;;;28.01;43.10;94363.03;4939719;28;7249;-61
2022/09/01 09:56:00;;;;;;;;;;;;;;;28.00;43.13;94361.50;4951225;28;6945;-61
2022/09/01 09:58:36;;;;;;;;;;;;;;;28.02;43.18;94362.47;4954772;28;7306;-61
2022/09/01 10:01:31;;;;;;;;;;;;;;;28.01;43.19;94360.25;4940313;28;7280;-61
2022/09/01 10:04:07;;;;;;;;;;;;;;;28.01;43.15;94368.53;4949377;28;8782;-61
2022/09/01 10:06:44;;;;;;;;;;;;;;;28.01;43.55;94357.50;4936681;28;7280;-61
2022/09/01 10:09:16;;;;;;;;;;;;;;;28.01;43.17;94365.78;4937057;28;8402;-61
2022/09/01 10:11:49;;;;;;;;;;;;;;;28.03;43.07;94357.72;4954978;28;7002;-61
2022/09/01 10:14:32;;;;;;;;;;;;;;;28.01;43.15;94355.47;4946750;28;7308;-61
2022/09/01 10:17:13;;;;;;;;;;;;;;;28.03;43.18;94363.22;4937398;28;8369;-61
2022/09/01 10:20:10;;;;;;;;;;;;;;;28.04;43.22;94356.41;4987577;28;7541;-61
2022/09/01 10:22:40;;;;;;;;;;;;;;;28.03;43.34;94358.47;4988876;28;9496;-61
2022/09/01 10:25:27;;;;;;;;;;;;;;;28.05;43.48;94355.16;4998057;28;7001;-61
2022/09/01 10:28:29;;;;;;;;;;;;;;;28.05;43.25;94361.44;5007977;28;7219;-61
2022/09/01 10:30:55;;;;;;;;;;;;;;;28.04;42.98;94357.16;4949821;28;7419;-61
2022/09/01 10:33:36;;;;;;;;;;;;;;;28.03;43.33;94349.41;4935645;28;9340;-61
2022/09/01 10:36:06;;;;;;;;;;;;;;;28.05;43.40;94355.16;4949632;28;9394;-61
2022/09/01 10:38:33;;;;;;;;;;;;;;;28.07;43.26;94358.13;4948378;28;7398;-61
2022/09/01 10:41:10;;;;;;;;;;;;;;;28.04;43.68;94350.88;4950258;28;7301;-61
2022/09/01 10:43:40;;;;;;;;;;;;;;;28.01;43.94;94352.72;4954346;28;7216;-61
2022/09/01 10:46:25;;;;;;;;;;;;;;;28.04;43.90;94353.66;4956533;28;9139;-61
2022/09/01 10:49:32;;;;;;;;;;;;;;;28.05;43.50;94344.09;4950867;28;6976;-61
2022/09/01 10:52:04;;;;;;;;;;;;;;;28.06;43.85;94343.56;4950275;28;7203;-60
2022/09/01 10:54:41;;;;;;;;;;;;;;;28.06;43.41;94340.78;4952941;28;7268;-60
2022/09/01 10:57:31;;;;;;;;;;;;;;;28.06;43.94;94348.34;4950753;28;7204;-60
2022/09/01 11:00:18;;;;;;;;;;;;;;;28.06;44.21;94348.34;4952865;28;7310;-60
2022/09/01 11:03:12;;;;;;;;;;;;;;;28.05;44.51;94344.84;4950074;28;7307;-60
2022/09/01 11:05:53;;;;;;;;;;;;;;;28.04;44.47;94346.09;4953139;28;7369;-59
2022/09/01 11:08:27;;;;;;;;;;;;;;;28.03;44.21;94350.16;4987505;28;7185;-60
2022/09/01 11:11:02;;;;;;;;;;;;;;;28.02;44.14;94345.13;5010318;28;7380;-60
2022/09/01 11:13:42;;;;;;;;;;;;;;;28.04;44.69;94345.34;4991009;28;7162;-60
2022/09/01 11:16:35;;;;;;;;;;;;;;;28.08;43.75;94338.25;4993761;28;7321;-60
2022/09/01 11:19:54;;;;;;;;;;;;;;;28.09;43.73;94336.97;4990724;28;7204;-61
2022/09/01 11:22:31;;;;;;;;;;;;;;;28.07;44.03;94338.78;4950752;28;9430;-61
2022/09/01 11:25:42;;;;;;;;;;;;;;;28.08;43.63;94337.50;4953482;28;7193;-61
2022/09/01 11:28:14;;;;;;;;;;;;;;;28.12;43.70;94344.19;4954564;28;7278;-61
2022/09/01 11:31:05;;;;;;;;;;;;;;;28.15;43.45;94331.34;4950212;28;7246;-61
2022/09/01 11:33:47;;;;;;;;;;;;;;;28.18;43.15;94330.28;4950375;28;6988;-61
2022/09/01 11:36:27;;;;;;;;;;;;;;;28.16;43.47;94325.31;4952768;28;7239;-61
2022/09/01 11:39:16;;;;;;;;;;;;;;;28.17;43.73;94320.50;4948797;28;7252;-61
2022/09/01 11:41:57;;;;;;;;;;;;;;;28.18;43.75;94333.06;4953141;28;6978;-61
2022/09/01 11:44:48;;;;;;;;;;;;;;;28.19;43.42;94329.00;4951535;28;10623;-61
2022/09/01 11:47:49;;;;;;;;;;;;;;;28.21;43.43;94324.44;4949700;28;7302;-60
2022/09/01 11:50:17;;;;;;;;;;;;;;;28.21;43.41;94335.50;4893234;29;7107;-61
2022/09/01 11:53:03;;;;;;;;;;;;;;;28.23;43.56;94332.22;4903233;29;7305;-60
2022/09/01 11:55:34;;;;;;;;;;;;;;;28.18;43.11;94331.06;4909493;29;7491;-60
2022/09/01 11:58:37;;;;;;;;;;;;;;;28.17;44.25;94331.56;4908823;28;6999;-60
2022/09/01 12:01:29;;;;;;;;;;;;;;;28.18;42.95;94330.28;4931456;28;7230;-61
2022/09/01 12:04:45;;;;;;;;;;;;;;;28.18;43.69;94324.75;4951746;28;7298;-60
2022/09/01 12:07:30;;;;;;;;;;;;;;;28.20;43.75;94327.75;4965338;28;7194;-61
2022/09/01 12:09:56;;;;;;;;;;;;;;;28.19;43.85;94320.72;4968967;28;7832;-61
2022/09/01 12:12:33;;;;;;;;;;;;;;;28.19;43.89;94320.72;4940669;28;9797;-61
2022/09/01 12:15:07;;;;;;;;;;;;;;;28.20;43.52;94311.16;4967467;28;7295;-60
2022/09/01 12:17:37;;;;;;;;;;;;;;;28.19;43.67;94318.69;4950924;28;6976;-61
2022/09/01 12:20:33;;;;;;;;;;;;;;;28.22;43.50;94325.19;4964977;28;7139;-61
2022/09/01 12:23:33;;;;;;;;;;;;;;;28.20;43.39;94322.22;4951092;28;9311;-61
2022/09/01 12:26:21;;;;;;;;;;;;;;;28.20;43.51;94327.75;4972305;28;7203;-60
2022/09/01 12:28:51;;;;;;;;;;;;;;;28.18;43.75;94319.22;5007834;28;9434;-61
2022/09/01 12:31:25;;;;;;;;;;;;;;;28.19;43.54;94327.00;5006771;28;9868;-61
2022/09/01 12:33:54;;;;;;;;;;;;;;;28.16;43.76;94319.78;4989103;28;7153;-61
2022/09/01 12:36:34;;;;;;;;;;;;;;;28.20;43.73;94325.72;4994688;28;8166;-61
2022/09/01 12:39:32;;;;;;;;;;;;;;;28.23;43.92;94318.41;4982226;28;7246;-60
2022/09/01 12:42:29;;;;;;;;;;;;;;;28.23;44.41;94321.88;4990029;28;7358;-61
2022/09/01 12:45:08;;;;;;;;;;;;;;;28.23;43.56;94324.66;4993966;28;9234;-60
2022/09/01 12:47:46;;;;;;;;;;;;;;;28.22;43.89;94320.41;5011529;28;7232;-60
2022/09/01 12:50:14;;;;;;;;;;;;;;;28.25;43.62;94324.16;5013721;28;7285;-60
2022/09/01 12:52:51;;;;;;;;;;;;;;;28.27;43.41;94321.59;4996937;28;9525;-60
2022/09/01 12:55:22;;;;;;;;;;;;;;;28.28;43.47;94323.06;4997497;28;7181;-61
2022/09/01 12:57:59;;;;;;;;;;;;;;;28.28;43.70;94326.59;5013268;28;7031;-61
2022/09/01 13:00:35;;;;;;;;;;;;;;;28.27;44.14;94327.13;5000429;28;7494;-60
2022/09/01 13:03:23;;;;;;;;;;;;;;;28.28;43.54;94326.59;4994651;28;7233;-61
2022/09/01 13:05:53;;;;;;;;;;;;;;;28.28;43.47;94323.81;4989051;28;7214;-60
2022/09/01 13:08:24;;;;;;;;;;;;;;;28.30;43.59;94321.25;4983206;28;7061;-60
2022/09/01 13:10:54;;;;;;;;;;;;;;;28.33;43.79;94325.00;5009061;28;7284;-60
2022/09/01 13:13:23;;;;;;;;;;;;;;;28.32;43.52;94312.44;5011499;28;8592;-61
2022/09/01 13:15:58;;;;;;;;;;;;;;;28.35;43.77;94323.19;4992389;28;7310;-61
2022/09/01 13:18:30;;;;;;;;;;;;;;;28.36;43.39;94313.59;4996416;28;7218;-61
2022/09/01 13:20:59;;;;;;;;;;;;;;;28.39;44.13;94314.56;4997530;28;7294;-61
2022/09/01 13:23:31;;;;;;;;;;;;;;;28.41;43.88;94308.50;4991416;28;6961;-61
2022/09/01 13:26:05;;;;;;;;;;;;;;;28.40;43.69;94307.78;5014992;28;7259;-61
2022/09/01 13:28:32;;;;;;;;;;;;;;;28.45;43.62;94304.13;4993661;28;7381;-61
2022/09/01 13:31:08;;;;;;;;;;;;;;;28.47;43.89;94290.50;5007782;28;6995;-61
2022/09/01 13:33:35;;;;;;;;;;;;;;;28.47;43.95;94293.28;5010209;28;8795;-61
2022/09/01 13:36:02;;;;;;;;;;;;;;;28.49;43.69;94290.75;4996869;28;7137;-60
2022/09/01 13:38:30;;;;;;;;;;;;;;;28.51;44.18;94287.44;4994959;28;7235;-60
2022/09/01 13:41:02;;;;;;;;;;;;;;;28.52;43.63;94291.69;4992994;28;7360;-61
2022/09/01 13:43:30;;;;;;;;;;;;;;;28.51;43.83;94296.50;4998532;28;7218;-61
2022/09/01 13:46:14;;;;;;;;;;;;;;;28.53;44.36;94285.63;4997942;28;6970;-61
2022/09/01 13:48:45;;;;;;;;;;;;;;;28.54;43.62;94289.13;5006284;28;7314;-60
2022/09/01 13:51:28;;;;;;;;;;;;;;;28.54;43.72;94289.88;5013417;28;7266;-60
2022/09/01 13:54:07;;;;;;;;;;;;;;;28.57;43.36;94293.59;4990164;28;7075;-61
2022/09/01 13:56:42;;;;;;;;;;;;;;;28.58;43.73;94290.31;5010311;28;9500;-61